createdAt,value
2023-02-09T00:04:53.598Z,102399.00
2023-02-09T00:14:53.649Z,102389.00
2023-02-09T00:24:55.510Z,102383.00
2023-02-09T00:34:55.661Z,102381.00
2023-02-09T00:44:55.657Z,102375.00
2023-02-09T00:54:55.601Z,102371.00
2023-02-09T01:04:55.666Z,102369.00
2023-02-09T01:14:55.646Z,102373.00
2023-02-09T01:24:55.648Z,102369.00
2023-02-09T01:34:55.661Z,102363.00
2023-02-09T01:44:56.887Z,102356.00
2023-02-09T01:54:56.797Z,102352.00
2023-02-09T02:04:56.705Z,102348.00
2023-02-09T02:14:56.817Z,102335.00
2023-02-09T02:24:56.784Z,102333.00
2023-02-09T02:34:56.683Z,102335.00
2023-02-09T02:44:56.722Z,102335.00
2023-02-09T02:54:56.689Z,102337.00
2023-02-09T03:04:56.743Z,102346.00
2023-02-09T03:14:56.779Z,102331.00
2023-02-09T03:24:56.746Z,102331.00
2023-02-09T03:34:56.740Z,102346.00
2023-02-09T03:44:56.837Z,102331.00
2023-02-09T03:54:56.754Z,102327.00
2023-02-09T04:04:56.783Z,102317.00
2023-02-09T04:14:56.870Z,102317.00
2023-02-09T04:24:56.808Z,102306.00
2023-02-09T04:34:56.783Z,102296.00
2023-02-09T04:44:56.879Z,102294.00
2023-02-09T04:54:56.806Z,102286.00
2023-02-09T05:04:56.816Z,102280.00
2023-02-09T05:14:56.921Z,102278.00
2023-02-09T05:24:56.834Z,102274.00
2023-02-09T05:34:56.957Z,102268.00
2023-02-09T05:44:56.971Z,102278.00
2023-02-09T05:54:56.904Z,102278.00
2023-02-09T06:04:56.954Z,102278.00
2023-02-09T06:14:56.948Z,102270.00
2023-02-09T06:24:56.994Z,102268.00
2023-02-09T06:34:56.936Z,102261.00
2023-02-09T06:44:58.861Z,102272.00
2023-02-09T06:54:59.094Z,102284.00
2023-02-09T07:04:59.284Z,102292.00
2023-02-09T07:14:59.116Z,102304.00
2023-02-09T07:24:59.075Z,102317.00
2023-02-09T07:34:59.055Z,102325.00
2023-02-09T07:44:59.089Z,102315.00
2023-02-09T07:54:59.091Z,102304.00
2023-02-09T08:04:59.175Z,102306.00
2023-02-09T08:14:59.069Z,102315.00
2023-02-09T08:24:59.070Z,102323.00
2023-02-09T08:34:59.077Z,102325.00
2023-02-09T08:44:59.150Z,102333.00
2023-02-09T08:54:59.072Z,102363.00
2023-02-09T09:04:59.091Z,102369.00
2023-02-09T09:14:59.099Z,102369.00
2023-02-09T09:24:59.253Z,102385.00
2023-02-09T09:34:59.103Z,102391.00
2023-02-09T09:44:59.188Z,102397.00
2023-02-09T09:54:59.499Z,102399.00
2023-02-09T10:04:59.223Z,102403.00
2023-02-09T10:14:59.193Z,102401.00
2023-02-09T10:24:59.643Z,102401.00
2023-02-09T10:35:02.087Z,102399.00
2023-02-09T10:45:02.228Z,102375.00
2023-02-09T10:55:02.385Z,102361.00
2023-02-09T11:05:02.276Z,102354.00
2023-02-09T11:15:02.427Z,102348.00
2023-02-09T11:25:02.402Z,102346.00
2023-02-09T11:35:02.446Z,102335.00
2023-02-09T11:45:02.371Z,102329.00
2023-02-09T11:55:02.337Z,102325.00
2023-02-09T12:05:02.288Z,102315.00
2023-02-09T12:15:04.721Z,102302.00
2023-02-09T12:25:05.490Z,102298.00
2023-02-09T12:35:05.353Z,102300.00
2023-02-09T12:45:05.359Z,102300.00
2023-02-09T12:55:05.376Z,102306.00
2023-02-09T13:05:05.425Z,102308.00
2023-02-09T13:15:05.423Z,102298.00
2023-02-09T13:25:05.440Z,102296.00
2023-02-09T13:35:05.432Z,102296.00
2023-02-09T13:45:05.419Z,102288.00
2023-02-09T13:55:08.609Z,102282.00
2023-02-09T14:05:08.506Z,102276.00
2023-02-09T14:15:30.973Z,102276.00
2023-02-09T14:25:31.648Z,102280.00
2023-02-09T14:35:32.644Z,102292.00
2023-02-09T14:45:32.497Z,102288.00
2023-02-09T14:55:34.892Z,102288.00
2023-02-09T15:05:34.532Z,102282.00
2023-02-09T15:15:36.478Z,102288.00
2023-02-09T15:25:36.579Z,102296.00
2023-02-09T15:35:36.548Z,102304.00
2023-02-09T15:45:54.835Z,102314.00
2023-02-09T15:55:58.531Z,102319.00
2023-02-09T16:05:57.677Z,102321.00
2023-02-09T16:16:05.190Z,102327.00
2023-02-09T16:26:01.742Z,102337.00
2023-02-09T16:36:01.675Z,102361.00
2023-02-09T16:46:04.003Z,102381.00
2023-02-09T16:56:04.525Z,102391.00
2023-02-09T17:06:04.693Z,102401.00
2023-02-09T17:16:04.774Z,102419.99
2023-02-09T17:26:04.762Z,102442.01
2023-02-09T17:46:08.656Z,102452.00
2023-02-09T17:56:08.803Z,102455.01
2023-02-09T18:06:08.805Z,102465.00
2023-02-09T18:16:08.737Z,102473.00
2023-02-09T18:26:08.783Z,102481.01
2023-02-09T18:36:08.854Z,102481.01
2023-02-09T18:46:08.797Z,102485.00
2023-02-09T18:56:08.857Z,102494.99
2023-02-09T19:06:08.967Z,102506.01
2023-02-09T19:16:08.874Z,102522.00
2023-02-09T19:26:08.816Z,102528.00
2023-02-09T19:36:08.931Z,102536.00
2023-02-09T19:46:09.658Z,102548.00
2023-02-09T19:56:10.115Z,102553.00
2023-02-09T20:06:09.829Z,102559.00
2023-02-09T20:16:09.916Z,102561.00
2023-02-09T20:26:09.969Z,102573.00
2023-02-09T20:36:09.998Z,102581.01
2023-02-09T20:46:28.336Z,102587.00
2023-02-09T20:56:28.925Z,102594.99
2023-02-09T21:06:29.388Z,102605.01
2023-02-09T21:16:30.302Z,102611.00
2023-02-09T21:26:30.961Z,102609.00
2023-02-09T21:36:31.550Z,102603.00
2023-02-09T21:46:32.567Z,102603.00
2023-02-09T21:56:32.986Z,102591.00
2023-02-09T22:06:33.069Z,102582.99
2023-02-09T22:16:33.102Z,102575.00
2023-02-09T22:26:33.035Z,102582.99
2023-02-09T22:36:33.069Z,102591.00
2023-02-09T22:46:33.094Z,102611.00
2023-02-09T22:56:33.053Z,102615.00
2023-02-09T23:06:33.150Z,102625.00
2023-02-09T23:16:33.120Z,102625.00
2023-02-09T23:26:33.304Z,102629.00
2023-02-09T23:36:33.440Z,102632.99
2023-02-09T23:46:33.320Z,102637.00
2023-02-09T23:56:35.002Z,102648.00
